sensor_id;sensor_type;location;lat;lon;timestamp;temperature;humidity
36586;DHT22;22591;48.314;11.562;2023-05-07T00:01:15;11.80;99.90
36586;DHT22;22591;48.314;11.562;2023-05-07T00:03:41;11.90;99.90
36586;DHT22;22591;48.314;11.562;2023-05-07T00:06:07;11.90;99.90
36586;DHT22;22591;48.314;11.562;2023-05-07T00:08:32;11.90;99.90
36586;DHT22;22591;48.314;11.562;2023-05-07T00:10:58;12.00;99.90
36586;DHT22;22591;48.314;11.562;2023-05-07T00:13:23;11.90;99.90
36586;DHT22;22591;48.314;11.562;2023-05-07T00:15:49;11.90;99.90
36586;DHT22;22591;48.314;11.562;2023-05-07T00:18:14;11.90;99.90
36586;DHT22;22591;48.314;11.562;2023-05-07T00:20:40;11.90;99.90
36586;DHT22;22591;48.314;11.562;2023-05-07T00:23:05;11.90;99.90
36586;DHT22;22591;48.314;11.562;2023-05-07T00:25:31;11.90;99.90
36586;DHT22;22591;48.314;11.562;2023-05-07T00:27:56;11.90;99.90
36586;DHT22;22591;48.314;11.562;2023-05-07T00:30:27;11.90;99.90
36586;DHT22;22591;48.314;11.562;2023-05-07T00:32:53;11.90;99.90
36586;DHT22;22591;48.314;11.562;2023-05-07T00:35:19;11.90;99.90
36586;DHT22;22591;48.314;11.562;2023-05-07T00:37:45;11.90;99.90
36586;DHT22;22591;48.314;11.562;2023-05-07T00:40:10;11.80;99.90
36586;DHT22;22591;48.314;11.562;2023-05-07T00:42:36;11.80;99.90
36586;DHT22;22591;48.314;11.562;2023-05-07T00:45:02;11.80;99.90
36586;DHT22;22591;48.314;11.562;2023-05-07T00:47:28;11.80;99.90
36586;DHT22;22591;48.314;11.562;2023-05-07T00:49:54;11.80;99.90
36586;DHT22;22591;48.314;11.562;2023-05-07T00:52:21;11.90;99.90
36586;DHT22;22591;48.314;11.562;2023-05-07T00:54:49;11.90;99.90
36586;DHT22;22591;48.314;11.562;2023-05-07T00:57:14;11.90;99.90
36586;DHT22;22591;48.314;11.562;2023-05-07T00:59:41;11.90;99.90
36586;DHT22;22591;48.314;11.562;2023-05-07T01:02:07;11.90;99.90
36586;DHT22;22591;48.314;11.562;2023-05-07T01:04:33;11.80;99.90
36586;DHT22;22591;48.314;11.562;2023-05-07T01:06:59;11.80;99.90
36586;DHT22;22591;48.314;11.562;2023-05-07T01:09:28;11.80;99.90
36586;DHT22;22591;48.314;11.562;2023-05-07T01:11:54;11.80;99.90
36586;DHT22;22591;48.314;11.562;2023-05-07T01:14:22;11.80;99.90
36586;DHT22;22591;48.314;11.562;2023-05-07T01:16:48;11.80;99.90
36586;DHT22;22591;48.314;11.562;2023-05-07T01:19:18;11.90;99.90
36586;DHT22;22591;48.314;11.562;2023-05-07T01:21:47;11.90;99.90
36586;DHT22;22591;48.314;11.562;2023-05-07T01:24:14;11.90;99.90
36586;DHT22;22591;48.314;11.562;2023-05-07T01:26:41;11.90;99.90
36586;DHT22;22591;48.314;11.562;2023-05-07T01:29:06;11.90;99.90
36586;DHT22;22591;48.314;11.562;2023-05-07T01:31:33;11.90;99.90
36586;DHT22;22591;48.314;11.562;2023-05-07T01:34:01;11.90;99.90
36586;DHT22;22591;48.314;11.562;2023-05-07T01:36:29;11.90;99.90
36586;DHT22;22591;48.314;11.562;2023-05-07T01:38:55;11.90;99.90
36586;DHT22;22591;48.314;11.562;2023-05-07T01:41:23;11.80;99.90
36586;DHT22;22591;48.314;11.562;2023-05-07T01:43:50;11.80;99.90
36586;DHT22;22591;48.314;11.562;2023-05-07T01:46:17;11.80;99.90
36586;DHT22;22591;48.314;11.562;2023-05-07T01:48:44;11.70;99.90
36586;DHT22;22591;48.314;11.562;2023-05-07T01:51:11;11.70;99.90
36586;DHT22;22591;48.314;11.562;2023-05-07T01:53:38;11.70;99.90
36586;DHT22;22591;48.314;11.562;2023-05-07T01:56:04;11.60;99.90
36586;DHT22;22591;48.314;11.562;2023-05-07T01:58:30;11.50;99.90
36586;DHT22;22591;48.314;11.562;2023-05-07T02:00:55;11.50;99.90
36586;DHT22;22591;48.314;11.562;2023-05-07T02:03:21;11.50;99.90
36586;DHT22;22591;48.314;11.562;2023-05-07T02:05:46;11.40;99.90
36586;DHT22;22591;48.314;11.562;2023-05-07T02:08:12;11.40;99.90
36586;DHT22;22591;48.314;11.562;2023-05-07T02:10:37;11.40;99.90
36586;DHT22;22591;48.314;11.562;2023-05-07T02:13:03;11.40;99.90
36586;DHT22;22591;48.314;11.562;2023-05-07T02:15:28;11.40;99.90
36586;DHT22;22591;48.314;11.562;2023-05-07T02:18:02;11.30;99.90
36586;DHT22;22591;48.314;11.562;2023-05-07T02:20:28;11.30;99.90
36586;DHT22;22591;48.314;11.562;2023-05-07T02:22:53;11.30;99.90
36586;DHT22;22591;48.314;11.562;2023-05-07T02:25:19;11.30;99.90
36586;DHT22;22591;48.314;11.562;2023-05-07T02:27:44;11.30;99.90
36586;DHT22;22591;48.314;11.562;2023-05-07T02:30:10;11.30;99.90
36586;DHT22;22591;48.314;11.562;2023-05-07T02:32:36;11.30;99.90
36586;DHT22;22591;48.314;11.562;2023-05-07T02:35:01;11.30;99.90
36586;DHT22;22591;48.314;11.562;2023-05-07T02:37:27;11.30;99.90
36586;DHT22;22591;48.314;11.562;2023-05-07T02:39:53;11.30;99.90
36586;DHT22;22591;48.314;11.562;2023-05-07T02:42:18;11.30;99.90
36586;DHT22;22591;48.314;11.562;2023-05-07T02:44:44;11.30;99.90
36586;DHT22;22591;48.314;11.562;2023-05-07T02:47:09;11.30;99.90
36586;DHT22;22591;48.314;11.562;2023-05-07T02:49:35;11.30;99.90
36586;DHT22;22591;48.314;11.562;2023-05-07T02:52:01;11.30;99.90
36586;DHT22;22591;48.314;11.562;2023-05-07T02:54:26;11.30;99.90
36586;DHT22;22591;48.314;11.562;2023-05-07T02:56:52;11.30;99.90
36586;DHT22;22591;48.314;11.562;2023-05-07T02:59:17;11.20;99.90
36586;DHT22;22591;48.314;11.562;2023-05-07T03:01:43;11.20;99.90
36586;DHT22;22591;48.314;11.562;2023-05-07T03:04:10;11.20;99.90
36586;DHT22;22591;48.314;11.562;2023-05-07T03:06:36;11.30;99.90
36586;DHT22;22591;48.314;11.562;2023-05-07T03:09:02;11.20;99.90
36586;DHT22;22591;48.314;11.562;2023-05-07T03:11:28;11.20;99.90
36586;DHT22;22591;48.314;11.562;2023-05-07T03:13:54;11.20;99.90
36586;DHT22;22591;48.314;11.562;2023-05-07T03:16:19;11.30;99.90
36586;DHT22;22591;48.314;11.562;2023-05-07T03:18:45;11.30;99.90
36586;DHT22;22591;48.314;11.562;2023-05-07T03:21:10;11.30;99.90
36586;DHT22;22591;48.314;11.562;2023-05-07T03:23:36;11.20;99.90
36586;DHT22;22591;48.314;11.562;2023-05-07T03:26:01;11.20;99.90
36586;DHT22;22591;48.314;11.562;2023-05-07T03:28:27;11.20;99.90
36586;DHT22;22591;48.314;11.562;2023-05-07T03:30:52;11.10;99.90
36586;DHT22;22591;48.314;11.562;2023-05-07T03:33:18;11.10;99.90
36586;DHT22;22591;48.314;11.562;2023-05-07T03:35:44;11.10;99.90
36586;DHT22;22591;48.314;11.562;2023-05-07T03:38:09;11.10;99.90
36586;DHT22;22591;48.314;11.562;2023-05-07T03:40:35;11.10;99.90
36586;DHT22;22591;48.314;11.562;2023-05-07T03:43:00;11.10;99.90
36586;DHT22;22591;48.314;11.562;2023-05-07T03:45:26;11.00;99.90
36586;DHT22;22591;48.314;11.562;2023-05-07T03:47:51;11.00;99.90
36586;DHT22;22591;48.314;11.562;2023-05-07T03:50:17;11.00;99.90
36586;DHT22;22591;48.314;11.562;2023-05-07T03:52:43;11.00;99.90
36586;DHT22;22591;48.314;11.562;2023-05-07T03:55:09;11.00;99.90
36586;DHT22;22591;48.314;11.562;2023-05-07T03:57:34;11.00;99.90
36586;DHT22;22591;48.314;11.562;2023-05-07T04:00:00;10.80;99.90
36586;DHT22;22591;48.314;11.562;2023-05-07T04:02:26;10.80;99.90
36586;DHT22;22591;48.314;11.562;2023-05-07T04:04:52;10.80;99.90
36586;DHT22;22591;48.314;11.562;2023-05-07T04:07:17;10.80;99.90
36586;DHT22;22591;48.314;11.562;2023-05-07T04:09:43;10.80;99.90
36586;DHT22;22591;48.314;11.562;2023-05-07T04:12:08;10.90;99.90
36586;DHT22;22591;48.314;11.562;2023-05-07T04:14:34;10.90;99.90
36586;DHT22;22591;48.314;11.562;2023-05-07T04:16:59;10.90;99.90
36586;DHT22;22591;48.314;11.562;2023-05-07T04:19:25;10.80;99.90
36586;DHT22;22591;48.314;11.562;2023-05-07T04:21:50;10.80;99.90
36586;DHT22;22591;48.314;11.562;2023-05-07T04:24:16;10.80;99.90
36586;DHT22;22591;48.314;11.562;2023-05-07T04:26:41;10.80;99.90
36586;DHT22;22591;48.314;11.562;2023-05-07T04:29:07;10.90;99.90
36586;DHT22;22591;48.314;11.562;2023-05-07T04:31:33;10.90;99.90
36586;DHT22;22591;48.314;11.562;2023-05-07T04:33:58;10.90;99.90
36586;DHT22;22591;48.314;11.562;2023-05-07T04:36:24;11.00;99.90
36586;DHT22;22591;48.314;11.562;2023-05-07T04:38:53;11.00;99.90
36586;DHT22;22591;48.314;11.562;2023-05-07T04:41:18;11.10;99.90
36586;DHT22;22591;48.314;11.562;2023-05-07T04:43:44;11.20;99.90
36586;DHT22;22591;48.314;11.562;2023-05-07T04:46:10;11.50;99.90
36586;DHT22;22591;48.314;11.562;2023-05-07T04:48:35;12.00;99.90
36586;DHT22;22591;48.314;11.562;2023-05-07T04:51:01;12.20;99.90
36586;DHT22;22591;48.314;11.562;2023-05-07T04:53:27;12.30;99.90
36586;DHT22;22591;48.314;11.562;2023-05-07T04:55:58;12.30;99.90
36586;DHT22;22591;48.314;11.562;2023-05-07T04:58:24;12.40;99.90
36586;DHT22;22591;48.314;11.562;2023-05-07T05:00:50;12.40;99.90
36586;DHT22;22591;48.314;11.562;2023-05-07T05:03:15;12.50;99.90
36586;DHT22;22591;48.314;11.562;2023-05-07T05:05:41;12.60;99.90
36586;DHT22;22591;48.314;11.562;2023-05-07T05:08:07;12.70;99.90
36586;DHT22;22591;48.314;11.562;2023-05-07T05:10:32;12.90;99.90
36586;DHT22;22591;48.314;11.562;2023-05-07T05:12:58;12.90;99.90
36586;DHT22;22591;48.314;11.562;2023-05-07T05:15:23;12.90;99.90
36586;DHT22;22591;48.314;11.562;2023-05-07T05:17:49;13.00;99.90
36586;DHT22;22591;48.314;11.562;2023-05-07T05:20:14;13.20;99.90
36586;DHT22;22591;48.314;11.562;2023-05-07T05:22:41;13.40;99.90
36586;DHT22;22591;48.314;11.562;2023-05-07T05:25:07;13.50;99.90
36586;DHT22;22591;48.314;11.562;2023-05-07T05:27:33;13.70;99.90
36586;DHT22;22591;48.314;11.562;2023-05-07T05:29:59;13.80;99.90
36586;DHT22;22591;48.314;11.562;2023-05-07T05:32:24;14.00;99.90
36586;DHT22;22591;48.314;11.562;2023-05-07T05:34:50;14.10;99.90
36586;DHT22;22591;48.314;11.562;2023-05-07T05:37:16;14.30;99.90
36586;DHT22;22591;48.314;11.562;2023-05-07T05:39:42;14.40;99.90
36586;DHT22;22591;48.314;11.562;2023-05-07T05:42:07;14.60;99.90
36586;DHT22;22591;48.314;11.562;2023-05-07T05:44:33;14.80;99.90
36586;DHT22;22591;48.314;11.562;2023-05-07T05:46:58;15.00;99.90
36586;DHT22;22591;48.314;11.562;2023-05-07T05:49:24;15.00;99.90
36586;DHT22;22591;48.314;11.562;2023-05-07T05:51:50;15.10;99.90
36586;DHT22;22591;48.314;11.562;2023-05-07T05:54:16;15.20;99.90
36586;DHT22;22591;48.314;11.562;2023-05-07T05:56:42;15.20;99.90
36586;DHT22;22591;48.314;11.562;2023-05-07T05:59:07;15.30;99.90
36586;DHT22;22591;48.314;11.562;2023-05-07T06:01:33;15.30;99.90
36586;DHT22;22591;48.314;11.562;2023-05-07T06:03:58;15.40;99.90
36586;DHT22;22591;48.314;11.562;2023-05-07T06:06:24;15.40;99.90
36586;DHT22;22591;48.314;11.562;2023-05-07T06:08:50;15.50;99.90
36586;DHT22;22591;48.314;11.562;2023-05-07T06:11:15;15.40;99.90
36586;DHT22;22591;48.314;11.562;2023-05-07T06:13:41;15.40;99.90
36586;DHT22;22591;48.314;11.562;2023-05-07T06:16:07;15.40;99.90
36586;DHT22;22591;48.314;11.562;2023-05-07T06:18:32;15.60;99.90
36586;DHT22;22591;48.314;11.562;2023-05-07T06:20:58;15.70;99.90
36586;DHT22;22591;48.314;11.562;2023-05-07T06:23:23;15.80;99.90
36586;DHT22;22591;48.314;11.562;2023-05-07T06:25:49;15.80;99.90
36586;DHT22;22591;48.314;11.562;2023-05-07T06:28:15;15.80;99.90
36586;DHT22;22591;48.314;11.562;2023-05-07T06:30:41;16.00;99.90
36586;DHT22;22591;48.314;11.562;2023-05-07T06:33:07;16.00;99.90
36586;DHT22;22591;48.314;11.562;2023-05-07T06:35:32;16.10;99.90
36586;DHT22;22591;48.314;11.562;2023-05-07T06:37:59;16.20;99.90
36586;DHT22;22591;48.314;11.562;2023-05-07T06:40:25;16.40;99.90
36586;DHT22;22591;48.314;11.562;2023-05-07T06:42:50;16.60;99.90
36586;DHT22;22591;48.314;11.562;2023-05-07T06:45:16;16.70;99.90
36586;DHT22;22591;48.314;11.562;2023-05-07T06:47:41;16.80;99.90
36586;DHT22;22591;48.314;11.562;2023-05-07T06:50:07;16.90;99.90
36586;DHT22;22591;48.314;11.562;2023-05-07T06:52:33;16.90;99.90
36586;DHT22;22591;48.314;11.562;2023-05-07T06:54:59;16.90;99.90
36586;DHT22;22591;48.314;11.562;2023-05-07T06:57:25;17.10;99.90
36586;DHT22;22591;48.314;11.562;2023-05-07T06:59:50;17.20;99.90
36586;DHT22;22591;48.314;11.562;2023-05-07T07:02:16;17.30;99.90
36586;DHT22;22591;48.314;11.562;2023-05-07T07:04:41;17.40;99.90
36586;DHT22;22591;48.314;11.562;2023-05-07T07:07:07;17.50;99.90
36586;DHT22;22591;48.314;11.562;2023-05-07T07:09:33;17.50;99.90
36586;DHT22;22591;48.314;11.562;2023-05-07T07:11:58;17.60;99.90
36586;DHT22;22591;48.314;11.562;2023-05-07T07:14:24;17.60;99.90
36586;DHT22;22591;48.314;11.562;2023-05-07T07:16:50;17.70;99.90
36586;DHT22;22591;48.314;11.562;2023-05-07T07:19:16;17.80;99.90
36586;DHT22;22591;48.314;11.562;2023-05-07T07:21:42;17.90;99.90
36586;DHT22;22591;48.314;11.562;2023-05-07T07:24:07;18.10;99.90
36586;DHT22;22591;48.314;11.562;2023-05-07T07:26:33;18.10;99.90
36586;DHT22;22591;48.314;11.562;2023-05-07T07:28:58;18.30;99.90
36586;DHT22;22591;48.314;11.562;2023-05-07T07:31:24;18.30;99.90
36586;DHT22;22591;48.314;11.562;2023-05-07T07:33:49;18.30;99.90
36586;DHT22;22591;48.314;11.562;2023-05-07T07:36:15;18.10;99.90
36586;DHT22;22591;48.314;11.562;2023-05-07T07:38:41;18.10;99.90
36586;DHT22;22591;48.314;11.562;2023-05-07T07:41:08;18.20;99.90
36586;DHT22;22591;48.314;11.562;2023-05-07T07:43:34;18.30;99.90
36586;DHT22;22591;48.314;11.562;2023-05-07T07:46:00;18.30;99.90
36586;DHT22;22591;48.314;11.562;2023-05-07T07:48:26;18.40;99.90
36586;DHT22;22591;48.314;11.562;2023-05-07T07:50:52;18.60;99.90
36586;DHT22;22591;48.314;11.562;2023-05-07T07:53:17;18.70;99.90
36586;DHT22;22591;48.314;11.562;2023-05-07T07:55:43;18.90;99.90
36586;DHT22;22591;48.314;11.562;2023-05-07T07:58:09;18.90;99.90
36586;DHT22;22591;48.314;11.562;2023-05-07T08:00:34;18.90;99.90
36586;DHT22;22591;48.314;11.562;2023-05-07T08:03:00;19.10;99.90
36586;DHT22;22591;48.314;11.562;2023-05-07T08:05:26;19.20;99.90
36586;DHT22;22591;48.314;11.562;2023-05-07T08:07:52;19.20;99.90
36586;DHT22;22591;48.314;11.562;2023-05-07T08:10:18;19.40;99.90
36586;DHT22;22591;48.314;11.562;2023-05-07T08:12:50;19.40;99.90
36586;DHT22;22591;48.314;11.562;2023-05-07T08:15:16;19.50;99.90
36586;DHT22;22591;48.314;11.562;2023-05-07T08:17:42;19.50;99.90
36586;DHT22;22591;48.314;11.562;2023-05-07T08:20:08;19.50;99.90
36586;DHT22;22591;48.314;11.562;2023-05-07T08:22:35;19.70;99.90
36586;DHT22;22591;48.314;11.562;2023-05-07T08:25:00;19.90;99.90
36586;DHT22;22591;48.314;11.562;2023-05-07T08:27:26;19.90;99.90
36586;DHT22;22591;48.314;11.562;2023-05-07T08:29:52;20.00;99.90
36586;DHT22;22591;48.314;11.562;2023-05-07T08:32:18;20.10;99.90
36586;DHT22;22591;48.314;11.562;2023-05-07T08:34:43;20.20;99.90
36586;DHT22;22591;48.314;11.562;2023-05-07T08:37:09;20.30;99.90
36586;DHT22;22591;48.314;11.562;2023-05-07T08:39:34;20.30;99.90
36586;DHT22;22591;48.314;11.562;2023-05-07T08:42:00;20.30;99.90
36586;DHT22;22591;48.314;11.562;2023-05-07T08:44:33;20.50;99.90
36586;DHT22;22591;48.314;11.562;2023-05-07T08:47:01;20.60;99.90
36586;DHT22;22591;48.314;11.562;2023-05-07T08:49:27;20.70;99.90
36586;DHT22;22591;48.314;11.562;2023-05-07T08:51:53;20.90;99.90
36586;DHT22;22591;48.314;11.562;2023-05-07T08:54:20;21.00;99.90
36586;DHT22;22591;48.314;11.562;2023-05-07T08:56:46;21.00;99.90
36586;DHT22;22591;48.314;11.562;2023-05-07T08:59:12;21.00;99.90
36586;DHT22;22591;48.314;11.562;2023-05-07T09:01:37;20.80;99.90
36586;DHT22;22591;48.314;11.562;2023-05-07T09:04:04;20.90;99.90
36586;DHT22;22591;48.314;11.562;2023-05-07T09:06:30;20.90;99.90
36586;DHT22;22591;48.314;11.562;2023-05-07T09:08:56;20.90;99.90
36586;DHT22;22591;48.314;11.562;2023-05-07T09:11:24;21.00;99.90
36586;DHT22;22591;48.314;11.562;2023-05-07T09:13:57;21.20;99.90
36586;DHT22;22591;48.314;11.562;2023-05-07T09:16:27;21.30;99.90
36586;DHT22;22591;48.314;11.562;2023-05-07T09:18:54;21.30;99.90
36586;DHT22;22591;48.314;11.562;2023-05-07T09:21:21;21.40;99.90
36586;DHT22;22591;48.314;11.562;2023-05-07T09:23:50;21.50;99.90
36586;DHT22;22591;48.314;11.562;2023-05-07T09:26:16;21.60;99.90
36586;DHT22;22591;48.314;11.562;2023-05-07T09:28:42;21.60;99.90
36586;DHT22;22591;48.314;11.562;2023-05-07T09:31:11;21.60;99.90
36586;DHT22;22591;48.314;11.562;2023-05-07T09:33:38;21.60;99.90
36586;DHT22;22591;48.314;11.562;2023-05-07T09:36:07;21.60;99.90
36586;DHT22;22591;48.314;11.562;2023-05-07T09:38:34;21.60;99.90
36586;DHT22;22591;48.314;11.562;2023-05-07T09:41:12;21.80;99.90
36586;DHT22;22591;48.314;11.562;2023-05-07T09:43:39;21.80;99.90
36586;DHT22;22591;48.314;11.562;2023-05-07T09:46:15;21.80;99.90
36586;DHT22;22591;48.314;11.562;2023-05-07T09:48:43;21.80;99.90
36586;DHT22;22591;48.314;11.562;2023-05-07T09:51:25;21.70;99.90
36586;DHT22;22591;48.314;11.562;2023-05-07T09:53:54;21.80;99.00
36586;DHT22;22591;48.314;11.562;2023-05-07T09:56:20;21.80;98.50
36586;DHT22;22591;48.314;11.562;2023-05-07T09:58:46;21.90;98.10
36586;DHT22;22591;48.314;11.562;2023-05-07T10:01:12;21.90;97.20
36586;DHT22;22591;48.314;11.562;2023-05-07T10:03:40;21.90;97.00
36586;DHT22;22591;48.314;11.562;2023-05-07T10:06:08;22.00;96.80
36586;DHT22;22591;48.314;11.562;2023-05-07T10:08:35;22.10;97.50
36586;DHT22;22591;48.314;11.562;2023-05-07T10:11:01;22.10;96.50
36586;DHT22;22591;48.314;11.562;2023-05-07T10:13:28;22.20;96.30
36586;DHT22;22591;48.314;11.562;2023-05-07T10:15:55;22.10;94.60
36586;DHT22;22591;48.314;11.562;2023-05-07T10:18:22;21.90;95.00
36586;DHT22;22591;48.314;11.562;2023-05-07T10:21:20;21.80;94.90
36586;DHT22;22591;48.314;11.562;2023-05-07T10:23:45;21.80;95.70
36586;DHT22;22591;48.314;11.562;2023-05-07T10:26:14;21.90;95.20
36586;DHT22;22591;48.314;11.562;2023-05-07T10:28:44;22.00;94.50
36586;DHT22;22591;48.314;11.562;2023-05-07T10:33:51;21.90;95.40
36586;DHT22;22591;48.314;11.562;2023-05-07T10:36:18;22.00;93.80
36586;DHT22;22591;48.314;11.562;2023-05-07T10:38:44;22.20;93.40
36586;DHT22;22591;48.314;11.562;2023-05-07T10:41:11;22.20;93.00
36586;DHT22;22591;48.314;11.562;2023-05-07T10:43:42;22.20;93.10
36586;DHT22;22591;48.314;11.562;2023-05-07T10:46:17;22.20;92.00
36586;DHT22;22591;48.314;11.562;2023-05-07T10:51:32;22.70;91.50
36586;DHT22;22591;48.314;11.562;2023-05-07T10:56:40;22.80;92.40
36586;DHT22;22591;48.314;11.562;2023-05-07T11:01:53;22.90;90.90
36586;DHT22;22591;48.314;11.562;2023-05-07T11:04:19;22.90;91.20
36586;DHT22;22591;48.314;11.562;2023-05-07T11:12:16;23.10;90.60
36586;DHT22;22591;48.314;11.562;2023-05-07T11:17:08;23.30;90.70
36586;DHT22;22591;48.314;11.562;2023-05-07T11:19:51;23.40;90.00
36586;DHT22;22591;48.314;11.562;2023-05-07T11:25:05;24.00;86.90
36586;DHT22;22591;48.314;11.562;2023-05-07T11:27:31;23.90;88.70
36586;DHT22;22591;48.314;11.562;2023-05-07T11:29:57;23.70;86.80
36586;DHT22;22591;48.314;11.562;2023-05-07T11:32:24;23.80;86.10
36586;DHT22;22591;48.314;11.562;2023-05-07T11:34:57;23.90;85.20
36586;DHT22;22591;48.314;11.562;2023-05-07T11:37:24;24.30;85.10
36586;DHT22;22591;48.314;11.562;2023-05-07T11:39:50;24.30;85.20
36586;DHT22;22591;48.314;11.562;2023-05-07T11:42:33;24.40;86.60
36586;DHT22;22591;48.314;11.562;2023-05-07T11:45:00;24.50;84.10
36586;DHT22;22591;48.314;11.562;2023-05-07T11:47:26;24.70;85.40
36586;DHT22;22591;48.314;11.562;2023-05-07T11:49:55;24.90;83.30
36586;DHT22;22591;48.314;11.562;2023-05-07T11:52:22;24.90;81.70
36586;DHT22;22591;48.314;11.562;2023-05-07T11:54:52;25.10;80.80
36586;DHT22;22591;48.314;11.562;2023-05-07T11:57:18;25.20;78.80
36586;DHT22;22591;48.314;11.562;2023-05-07T11:59:44;25.00;77.40
36586;DHT22;22591;48.314;11.562;2023-05-07T12:02:10;25.20;78.60
36586;DHT22;22591;48.314;11.562;2023-05-07T12:04:36;25.50;78.70
36586;DHT22;22591;48.314;11.562;2023-05-07T12:07:03;25.80;79.10
36586;DHT22;22591;48.314;11.562;2023-05-07T12:09:28;25.80;77.60
36586;DHT22;22591;48.314;11.562;2023-05-07T12:11:55;25.90;76.90
36586;DHT22;22591;48.314;11.562;2023-05-07T12:14:21;26.20;76.50
36586;DHT22;22591;48.314;11.562;2023-05-07T12:16:47;26.30;74.80
36586;DHT22;22591;48.314;11.562;2023-05-07T12:19:13;26.40;74.30
36586;DHT22;22591;48.314;11.562;2023-05-07T12:21:40;26.50;75.00
36586;DHT22;22591;48.314;11.562;2023-05-07T12:24:06;26.50;76.10
36586;DHT22;22591;48.314;11.562;2023-05-07T12:26:31;26.20;74.50
36586;DHT22;22591;48.314;11.562;2023-05-07T12:28:57;26.30;75.30
36586;DHT22;22591;48.314;11.562;2023-05-07T12:31:26;26.40;75.10
36586;DHT22;22591;48.314;11.562;2023-05-07T12:33:52;26.10;76.60
36586;DHT22;22591;48.314;11.562;2023-05-07T12:36:17;26.00;75.70
36586;DHT22;22591;48.314;11.562;2023-05-07T12:38:43;26.00;77.00
36586;DHT22;22591;48.314;11.562;2023-05-07T12:41:10;25.70;74.80
36586;DHT22;22591;48.314;11.562;2023-05-07T12:43:37;25.50;75.30
36586;DHT22;22591;48.314;11.562;2023-05-07T12:46:05;25.40;75.90
36586;DHT22;22591;48.314;11.562;2023-05-07T12:48:31;25.50;77.10
36586;DHT22;22591;48.314;11.562;2023-05-07T12:50:58;25.50;74.30
36586;DHT22;22591;48.314;11.562;2023-05-07T12:53:26;25.60;73.90
36586;DHT22;22591;48.314;11.562;2023-05-07T12:55:54;25.90;74.50
36586;DHT22;22591;48.314;11.562;2023-05-07T12:58:32;25.80;75.30
36586;DHT22;22591;48.314;11.562;2023-05-07T13:00:59;25.70;75.30
36586;DHT22;22591;48.314;11.562;2023-05-07T13:03:31;25.40;75.30
36586;DHT22;22591;48.314;11.562;2023-05-07T13:05:59;25.10;75.30
36586;DHT22;22591;48.314;11.562;2023-05-07T13:08:30;25.10;75.50
36586;DHT22;22591;48.314;11.562;2023-05-07T13:10:58;25.20;74.30
36586;DHT22;22591;48.314;11.562;2023-05-07T13:13:24;25.20;73.80
36586;DHT22;22591;48.314;11.562;2023-05-07T13:15:50;25.30;74.60
36586;DHT22;22591;48.314;11.562;2023-05-07T13:18:16;25.20;74.70
36586;DHT22;22591;48.314;11.562;2023-05-07T13:20:41;25.20;74.30
36586;DHT22;22591;48.314;11.562;2023-05-07T13:23:07;25.40;74.70
36586;DHT22;22591;48.314;11.562;2023-05-07T13:25:32;25.60;74.10
36586;DHT22;22591;48.314;11.562;2023-05-07T13:27:58;25.80;74.40
36586;DHT22;22591;48.314;11.562;2023-05-07T13:30:23;25.70;72.40
36586;DHT22;22591;48.314;11.562;2023-05-07T13:32:49;25.50;72.90
36586;DHT22;22591;48.314;11.562;2023-05-07T13:35:16;25.50;74.80
36586;DHT22;22591;48.314;11.562;2023-05-07T13:37:41;25.70;74.20
36586;DHT22;22591;48.314;11.562;2023-05-07T13:40:07;25.70;73.40
36586;DHT22;22591;48.314;11.562;2023-05-07T13:42:33;25.80;71.70
36586;DHT22;22591;48.314;11.562;2023-05-07T13:44:59;26.10;72.10
36586;DHT22;22591;48.314;11.562;2023-05-07T13:47:24;26.10;70.40
36586;DHT22;22591;48.314;11.562;2023-05-07T13:49:50;26.10;70.60
36586;DHT22;22591;48.314;11.562;2023-05-07T13:52:16;26.10;70.80
36586;DHT22;22591;48.314;11.562;2023-05-07T13:54:42;26.10;71.70
36586;DHT22;22591;48.314;11.562;2023-05-07T13:57:08;26.10;71.10
36586;DHT22;22591;48.314;11.562;2023-05-07T13:59:33;26.20;71.00
36586;DHT22;22591;48.314;11.562;2023-05-07T14:01:59;26.20;70.40
36586;DHT22;22591;48.314;11.562;2023-05-07T14:04:25;26.00;69.30
36586;DHT22;22591;48.314;11.562;2023-05-07T14:06:51;26.10;70.40
36586;DHT22;22591;48.314;11.562;2023-05-07T14:09:17;26.10;69.10
36586;DHT22;22591;48.314;11.562;2023-05-07T14:11:42;26.10;69.60
36586;DHT22;22591;48.314;11.562;2023-05-07T14:14:08;26.30;70.40
36586;DHT22;22591;48.314;11.562;2023-05-07T14:16:36;26.40;70.00
36586;DHT22;22591;48.314;11.562;2023-05-07T14:19:02;26.30;69.70
36586;DHT22;22591;48.314;11.562;2023-05-07T14:21:28;26.40;68.90
36586;DHT22;22591;48.314;11.562;2023-05-07T14:23:53;26.60;69.40
36586;DHT22;22591;48.314;11.562;2023-05-07T14:26:19;26.70;70.10
36586;DHT22;22591;48.314;11.562;2023-05-07T14:28:46;26.70;70.60
36586;DHT22;22591;48.314;11.562;2023-05-07T14:31:13;26.60;70.50
36586;DHT22;22591;48.314;11.562;2023-05-07T14:33:38;26.60;70.30
36586;DHT22;22591;48.314;11.562;2023-05-07T14:36:04;26.60;69.30
36586;DHT22;22591;48.314;11.562;2023-05-07T14:38:30;26.80;69.90
36586;DHT22;22591;48.314;11.562;2023-05-07T14:40:58;26.80;67.90
36586;DHT22;22591;48.314;11.562;2023-05-07T14:43:23;26.70;67.80
36586;DHT22;22591;48.314;11.562;2023-05-07T14:45:49;26.50;67.70
36586;DHT22;22591;48.314;11.562;2023-05-07T14:48:15;26.30;67.20
36586;DHT22;22591;48.314;11.562;2023-05-07T14:50:41;26.20;68.20
36586;DHT22;22591;48.314;11.562;2023-05-07T14:53:07;26.00;67.80
36586;DHT22;22591;48.314;11.562;2023-05-07T14:55:34;26.10;68.10
36586;DHT22;22591;48.314;11.562;2023-05-07T14:58:00;26.00;68.40
36586;DHT22;22591;48.314;11.562;2023-05-07T15:00:26;25.90;68.20
36586;DHT22;22591;48.314;11.562;2023-05-07T15:02:51;25.90;68.40
36586;DHT22;22591;48.314;11.562;2023-05-07T15:05:17;25.90;68.80
36586;DHT22;22591;48.314;11.562;2023-05-07T15:07:44;25.80;69.00
36586;DHT22;22591;48.314;11.562;2023-05-07T15:10:10;25.80;70.10
36586;DHT22;22591;48.314;11.562;2023-05-07T15:12:36;25.70;69.70
36586;DHT22;22591;48.314;11.562;2023-05-07T15:15:01;25.40;69.20
36586;DHT22;22591;48.314;11.562;2023-05-07T15:17:27;25.30;69.10
36586;DHT22;22591;48.314;11.562;2023-05-07T15:19:53;25.30;69.70
36586;DHT22;22591;48.314;11.562;2023-05-07T15:22:18;25.30;69.90
36586;DHT22;22591;48.314;11.562;2023-05-07T15:24:44;25.30;70.20
36586;DHT22;22591;48.314;11.562;2023-05-07T15:27:10;25.20;71.00
36586;DHT22;22591;48.314;11.562;2023-05-07T15:29:35;25.10;71.50
36586;DHT22;22591;48.314;11.562;2023-05-07T15:32:01;25.10;72.40